Chetumal International Airport
MMCM : now visible

Airfield :











YOU CAN JOIN US ON...

 
LOGIN :

Register | Disclaimer

   EN    FR    IT 

 









Legend :    VFR   Marginal VFR   IFR   Intensive IFR   Very Intensive IFR
Visi :
Ceiling :
>= 8 km
>= 3000ft
5 to 8 km
1000 to 3000 ft
1500m to 5 km
500 to 1000 ft
800 to 1500m
200 to 500 ft
< 800m
< 200 ft
Symbols :   Thunderstorms  Fog  Heavy snow  Heavy precipitations  Wind > 20 kt






- Airport Elevation : 39 ft
- IATA code : CTM


MMCM - Chetumal International

CURRENT METAR :
  • 301252Z 00000KT 6SM SCT020 OVC250 26/25 A2991 RMK 8/506

EXPIRED METARs :
  • 301201Z RTD 00000KT 7SM SCT020 BKN250 25/24 A2989 RMK SLP123 5//// 957 8/506 RTS

TAF TAF MMCM
Valid from the 30 at 06:00 until the 31 at 06:00 UTC


300455Z 3006/3106 00000KT 6SM HZ BKN015 BKN100
TEMPO 3012/3016 5SM RA OVC015CB
FM301800 12012KT 6SM HZ BKN015CB BKN100
TEMPO 3022/3102 5SM TSRA OVC015CB
MMFR FIR / North America



MET'MAP, your aeronautical weather chart ! - Copyright ORBIFLY December 2007 - Disclaimer

ORBIFLY MET'MAP TEAM :

Programming & Development : Alexandra Zaïnal
Concept & original design : Baudouin d'Aumeries
Assistance for programming : Marc-Olivier Méhu
Technical & hardware support : Manuel Goepfert

Contact : metmap@orbifly.com




SOURCES & CREDITS :

   NOAA       Earth
Advisory